Time;durP1;ratioP1;P1;durP2;ratioP2;P2;SDS_P1;SDS_P2;PMS_P1;PMS_P2;Temp;Humidity;BMP_temperature;BMP_pressure;BME280_temperature;BME280_humidity;BME280_pressure;Samples;Min_cycle;Max_cycle;Signal;HPM_P1;HPM_P2
2022/09/07 00:00:50;;;;;;;;;;;;;;;28.08;56.73;98528.59;5053623;28;20462;-40
2022/09/07 00:03:16;;;;;;;;;;;;;;;28.08;56.81;98525.94;5072482;28;19927;-40
2022/09/07 00:05:42;;;;;;;;;;;;;;;28.06;56.06;98522.63;5071734;28;20448;-40
2022/09/07 00:08:07;;;;;;;;;;;;;;;28.12;56.85;98522.78;5071940;28;19920;-40
2022/09/07 00:10:32;;;;;;;;;;;;;;;28.55;52.79;98517.06;5073058;28;19919;-40
2022/09/07 00:12:57;;;;;;;;;;;;;;;29.44;49.90;98519.97;5074054;28;19919;-40
2022/09/07 00:15:23;;;;;;;;;;;;;;;29.48;49.44;98531.88;5075545;28;20355;-40
2022/09/07 00:17:48;;;;;;;;;;;;;;;29.90;46.58;98533.13;5075627;28;19928;-40
2022/09/07 00:20:13;;;;;;;;;;;;;;;29.11;50.00;98544.16;5075358;28;19925;-40
2022/09/07 00:22:39;;;;;;;;;;;;;;;28.89;51.09;98534.38;5076670;28;19964;-40
2022/09/07 00:25:04;;;;;;;;;;;;;;;28.43;52.11;98539.66;5074237;28;19916;-40
2022/09/07 00:27:30;;;;;;;;;;;;;;;28.26;53.98;98541.53;5074567;28;19954;-40
2022/09/07 00:29:55;;;;;;;;;;;;;;;28.75;52.76;98544.75;5076044;28;19920;-40
2022/09/07 00:32:20;;;;;;;;;;;;;;;28.32;54.04;98546.97;5076190;28;19973;-40
2022/09/07 00:34:45;;;;;;;;;;;;;;;28.61;53.16;98547.34;5074271;28;19966;-40
2022/09/07 00:37:11;;;;;;;;;;;;;;;28.56;54.31;98559.28;5073075;28;20983;-40
2022/09/07 00:39:36;;;;;;;;;;;;;;;28.88;53.19;98613.09;5075711;28;19958;-40
2022/09/07 00:42:01;;;;;;;;;;;;;;;27.57;62.70;98686.78;5075707;28;19920;-40
2022/09/07 00:44:42;;;;;;;;;;;;;;;27.77;62.60;98703.97;5074978;28;19920;-40
2022/09/07 00:47:08;;;;;;;;;;;;;;;27.81;66.21;98705.28;5075490;28;20151;-40
2022/09/07 00:49:34;;;;;;;;;;;;;;;26.92;75.52;98720.03;5074831;28;20024;-39
2022/09/07 00:51:59;;;;;;;;;;;;;;;27.17;77.64;98722.75;5056911;28;19924;-39
2022/09/07 00:54:30;;;;;;;;;;;;;;;26.21;83.76;98737.81;5073629;28;19920;-39
2022/09/07 00:56:55;;;;;;;;;;;;;;;25.88;87.26;98742.03;5056143;28;20572;-40
2022/09/07 00:59:22;;;;;;;;;;;;;;;25.78;90.75;98741.28;5074443;28;19924;-40
2022/09/07 01:01:47;;;;;;;;;;;;;;;25.68;95.23;98736.06;5057178;28;20010;-40
2022/09/07 01:04:13;;;;;;;;;;;;;;;25.07;100.00;98715.72;5075060;28;19920;-40
2022/09/07 01:06:38;;;;;;;;;;;;;;;24.97;100.00;98724.47;5056720;28;20034;-40
2022/09/07 01:09:05;;;;;;;;;;;;;;;25.28;100.00;98726.81;5057051;28;19920;-40
2022/09/07 01:11:32;;;;;;;;;;;;;;;25.15;100.00;98735.03;5073711;28;19919;-40
2022/09/07 01:13:58;;;;;;;;;;;;;;;26.38;95.17;98711.50;5056090;28;20393;-40
2022/09/07 01:16:23;;;;;;;;;;;;;;;26.19;95.36;98721.31;5073913;28;20015;-40
2022/09/07 01:19:07;;;;;;;;;;;;;;;26.19;92.63;98718.66;5076068;28;19963;-40
2022/09/07 01:21:47;;;;;;;;;;;;;;;26.86;87.95;98707.44;5075169;28;20039;-40
2022/09/07 01:24:21;;;;;;;;;;;;;;;27.26;86.10;98708.59;5054667;28;20869;-40
2022/09/07 01:26:57;;;;;;;;;;;;;;;27.64;83.03;98709.75;5075602;28;20314;-40
2022/09/07 01:29:27;;;;;;;;;;;;;;;26.80;83.10;98705.44;5056346;28;20721;-40
2022/09/07 01:31:55;;;;;;;;;;;;;;;26.83;85.78;98700.69;5056326;28;19923;-40
2022/09/07 01:34:24;;;;;;;;;;;;;;;26.22;91.11;98702.50;5074525;28;20704;-40
2022/09/07 01:36:53;;;;;;;;;;;;;;;26.81;84.92;98691.25;5072201;28;19939;-40
2022/09/07 01:39:18;;;;;;;;;;;;;;;27.94;78.93;98697.69;5055334;28;19920;-40
2022/09/07 01:41:50;;;;;;;;;;;;;;;27.17;82.89;98733.31;5056547;28;20760;-40
2022/09/07 01:44:26;;;;;;;;;;;;;;;27.01;84.36;98748.13;5073623;28;19920;-40
2022/09/07 01:46:53;;;;;;;;;;;;;;;27.24;83.37;98751.03;5056602;28;19920;-40
2022/09/07 01:49:22;;;;;;;;;;;;;;;26.70;86.55;98759.22;5055034;28;19974;-40
2022/09/07 01:51:49;;;;;;;;;;;;;;;26.66;87.13;98757.91;5074346;28;19962;-40
2022/09/07 01:54:21;;;;;;;;;;;;;;;26.96;85.72;98762.81;5055399;28;19954;-40
2022/09/07 01:56:46;;;;;;;;;;;;;;;27.34;85.26;98782.63;5042860;28;19931;-40
2022/09/07 01:59:28;;;;;;;;;;;;;;;26.91;90.17;98802.91;5055660;28;20320;-40
2022/09/07 02:01:56;;;;;;;;;;;;;;;26.77;89.77;98811.44;5068248;28;20834;-40
2022/09/07 02:04:36;;;;;;;;;;;;;;;26.24;93.37;98811.41;5055071;28;20783;-40
2022/09/07 02:07:01;;;;;;;;;;;;;;;25.15;100.00;98814.09;5072400;28;19920;-40
2022/09/07 02:09:28;;;;;;;;;;;;;;;24.85;100.00;98807.31;5073966;28;19969;-40
2022/09/07 02:11:53;;;;;;;;;;;;;;;25.79;100.00;98785.13;5054799;28;20031;-39
2022/09/07 02:14:21;;;;;;;;;;;;;;;25.23;100.00;98773.88;5073447;28;20162;-39
2022/09/07 02:16:55;;;;;;;;;;;;;;;26.22;100.00;98755.31;5072997;28;19931;-39
2022/09/07 02:19:20;;;;;;;;;;;;;;;25.98;100.00;98769.16;5054830;28;20354;-39
2022/09/07 02:21:50;;;;;;;;;;;;;;;25.25;100.00;98766.66;5056468;28;20007;-40
2022/09/07 02:24:30;;;;;;;;;;;;;;;26.53;100.00;98712.59;5053471;28;19923;-40
2022/09/07 02:26:55;;;;;;;;;;;;;;;26.87;100.00;98678.22;5048009;28;20693;-40
2022/09/07 02:29:20;;;;;;;;;;;;;;;26.65;100.00;98666.44;5072931;28;19920;-40
2022/09/07 02:31:46;;;;;;;;;;;;;;;25.60;100.00;98702.56;5073654;28;20691;-40
2022/09/07 02:34:12;;;;;;;;;;;;;;;26.93;100.00;98684.69;5072689;28;20292;-39
2022/09/07 02:36:43;;;;;;;;;;;;;;;27.15;100.00;98672.66;5052972;28;19927;-40
2022/09/07 02:39:08;;;;;;;;;;;;;;;27.11;100.00;98655.47;5073995;28;20787;-40
2022/09/07 02:41:35;;;;;;;;;;;;;;;26.98;100.00;98640.13;5073599;28;20011;-39
2022/09/07 02:44:01;;;;;;;;;;;;;;;26.10;100.00;98643.06;5055579;28;19990;-39
2022/09/07 02:46:29;;;;;;;;;;;;;;;27.36;100.00;98648.41;5053837;28;20857;-39
2022/09/07 02:48:57;;;;;;;;;;;;;;;27.44;100.00;98644.97;5072675;28;19920;-39
2022/09/07 02:51:22;;;;;;;;;;;;;;;27.42;100.00;98639.00;5073877;28;19920;-39
2022/09/07 02:54:00;;;;;;;;;;;;;;;27.68;100.00;98626.41;5073011;28;19920;-39
2022/09/07 02:56:43;;;;;;;;;;;;;;;27.22;100.00;98622.66;5071221;28;19919;-39
2022/09/07 02:59:31;;;;;;;;;;;;;;;26.69;100.00;98604.38;5073640;28;19920;-39
2022/09/07 03:01:59;;;;;;;;;;;;;;;26.63;100.00;98594.44;5054557;28;19916;-40
2022/09/07 03:04:45;;;;;;;;;;;;;;;26.26;100.00;98598.28;5053768;28;19981;-39
2022/09/07 03:07:15;;;;;;;;;;;;;;;26.04;100.00;98580.34;5072247;28;19976;-40
2022/09/07 03:09:41;;;;;;;;;;;;;;;25.28;100.00;98592.38;5054574;28;19920;-40
2022/09/07 03:12:07;;;;;;;;;;;;;;;25.44;100.00;98584.59;5054464;28;19922;-40
2022/09/07 03:14:33;;;;;;;;;;;;;;;25.11;100.00;98580.03;5073183;28;19916;-39
2022/09/07 03:16:58;;;;;;;;;;;;;;;25.17;100.00;98580.25;5072136;28;19920;-39
2022/09/07 03:19:23;;;;;;;;;;;;;;;25.48;100.00;98577.22;5072844;28;19927;-40
2022/09/07 03:21:48;;;;;;;;;;;;;;;24.42;100.00;98575.22;5073403;28;19916;-40
2022/09/07 03:24:14;;;;;;;;;;;;;;;24.00;100.00;98559.09;5071990;28;20368;-39
2022/09/07 03:26:40;;;;;;;;;;;;;;;24.31;100.00;98554.34;5072384;28;19926;-40
2022/09/07 03:29:06;;;;;;;;;;;;;;;24.14;100.00;98565.69;5054713;28;19920;-40
2022/09/07 03:31:31;;;;;;;;;;;;;;;24.27;100.00;98575.84;5071994;28;19928;-39
2022/09/07 03:33:57;;;;;;;;;;;;;;;24.28;100.00;98565.19;5072425;28;20100;-40
2022/09/07 03:36:22;;;;;;;;;;;;;;;24.54;100.00;98570.63;5070845;28;19973;-39
2022/09/07 03:38:47;;;;;;;;;;;;;;;24.77;100.00;98572.78;5073209;28;20266;-40
2022/09/07 03:41:12;;;;;;;;;;;;;;;23.75;100.00;98581.63;5071816;28;19916;-39
2022/09/07 03:43:38;;;;;;;;;;;;;;;25.80;100.00;98566.03;5071686;28;19919;-40
2022/09/07 03:46:03;;;;;;;;;;;;;;;25.80;100.00;98565.22;5072734;28;19989;-40
2022/09/07 03:48:29;;;;;;;;;;;;;;;25.81;100.00;98562.41;5075902;28;19940;-39
2022/09/07 03:50:58;;;;;;;;;;;;;;;26.18;100.00;98548.06;5074297;28;19920;-40
2022/09/07 03:53:23;;;;;;;;;;;;;;;26.46;100.00;98553.13;5074523;28;19919;-39
2022/09/07 03:55:58;;;;;;;;;;;;;;;26.61;100.00;98563.91;5075424;28;20522;-39
2022/09/07 03:58:24;;;;;;;;;;;;;;;26.01;100.00;98570.94;5074882;28;19924;-40
2022/09/07 04:00:49;;;;;;;;;;;;;;;25.94;100.00;98561.19;5074787;28;19967;-40
2022/09/07 04:03:14;;;;;;;;;;;;;;;25.59;100.00;98571.69;5077414;28;19923;-39
2022/09/07 04:05:39;;;;;;;;;;;;;;;25.96;100.00;98548.66;5075417;28;20521;-40
2022/09/07 04:08:05;;;;;;;;;;;;;;;24.38;100.00;98565.13;5075444;28;19966;-40
2022/09/07 04:10:30;;;;;;;;;;;;;;;24.36;100.00;98569.75;5076397;28;20018;-40
2022/09/07 04:12:55;;;;;;;;;;;;;;;23.94;100.00;98576.28;5075852;28;19916;-40
2022/09/07 04:15:20;;;;;;;;;;;;;;;24.01;100.00;98571.28;5076688;28;19916;-39
2022/09/07 04:17:46;;;;;;;;;;;;;;;24.58;100.00;98564.06;5074881;28;19924;-39
2022/09/07 04:20:11;;;;;;;;;;;;;;;24.30;100.00;98557.16;5075779;28;19916;-39
2022/09/07 04:22:37;;;;;;;;;;;;;;;24.27;100.00;98566.19;5076467;28;20348;-39
2022/09/07 04:25:02;;;;;;;;;;;;;;;25.73;100.00;98537.78;5075556;28;19948;-40
2022/09/07 04:27:27;;;;;;;;;;;;;;;25.22;100.00;98548.19;5074174;28;19920;-40
2022/09/07 04:29:52;;;;;;;;;;;;;;;25.56;100.00;98545.63;5072390;28;20050;-40
2022/09/07 04:32:18;;;;;;;;;;;;;;;25.36;100.00;98538.91;5075777;28;19930;-40
2022/09/07 04:34:43;;;;;;;;;;;;;;;26.15;100.00;98543.13;5056885;28;20463;-40
2022/09/07 04:37:08;;;;;;;;;;;;;;;26.50;100.00;98534.16;5071787;28;19920;-40
2022/09/07 04:39:34;;;;;;;;;;;;;;;26.51;100.00;98532.34;5057080;28;20051;-40
2022/09/07 04:41:59;;;;;;;;;;;;;;;26.29;100.00;98534.59;5074202;28;19932;-40
2022/09/07 04:44:24;;;;;;;;;;;;;;;26.49;100.00;98515.81;5073552;28;20338;-40
2022/09/07 04:46:50;;;;;;;;;;;;;;;26.54;100.00;98518.78;5066203;28;19934;-40
2022/09/07 04:49:15;;;;;;;;;;;;;;;26.02;100.00;98505.81;5068954;28;20012;-40
2022/09/07 04:51:43;;;;;;;;;;;;;;;25.46;100.00;98527.28;5074881;28;19920;-40
2022/09/07 04:54:08;;;;;;;;;;;;;;;25.08;100.00;98525.81;5075897;28;19926;-40
2022/09/07 04:56:34;;;;;;;;;;;;;;;25.84;100.00;98519.91;5037220;28;19924;-40
2022/09/07 04:58:59;;;;;;;;;;;;;;;25.33;100.00;98526.84;5074823;28;19927;-40
2022/09/07 05:01:25;;;;;;;;;;;;;;;25.62;100.00;98523.91;5075065;28;19920;-40
2022/09/07 05:03:50;;;;;;;;;;;;;;;25.75;100.00;98526.13;5073921;28;19963;-40
2022/09/07 05:06:16;;;;;;;;;;;;;;;25.44;100.00;98537.16;5072875;28;19973;-40
2022/09/07 05:08:42;;;;;;;;;;;;;;;25.36;100.00;98531.84;5072691;28;20518;-39
2022/09/07 05:11:08;;;;;;;;;;;;;;;25.63;100.00;98530.00;5056243;28;19920;-39
2022/09/07 05:13:34;;;;;;;;;;;;;;;25.93;100.00;98533.13;5056640;28;20307;-40
2022/09/07 05:16:00;;;;;;;;;;;;;;;25.72;100.00;98544.88;5055078;28;19924;-40
2022/09/07 05:18:26;;;;;;;;;;;;;;;25.28;100.00;98550.22;5073161;28;21031;-39
2022/09/07 05:20:51;;;;;;;;;;;;;;;24.60;100.00;98554.22;5070395;28;19924;-40
2022/09/07 05:23:16;;;;;;;;;;;;;;;24.87;100.00;98563.03;5057350;28;19927;-40
2022/09/07 05:25:42;;;;;;;;;;;;;;;25.04;100.00;98559.56;5072668;28;20027;-40
2022/09/07 05:28:08;;;;;;;;;;;;;;;25.05;100.00;98569.13;5072695;28;20186;-40
2022/09/07 05:30:33;;;;;;;;;;;;;;;24.66;100.00;98570.41;5071322;28;19931;-39
2022/09/07 05:32:58;;;;;;;;;;;;;;;24.51;100.00;98577.97;5072642;28;19920;-39
2022/09/07 05:35:23;;;;;;;;;;;;;;;25.37;100.00;98559.84;5070821;28;19950;-39
2022/09/07 05:37:49;;;;;;;;;;;;;;;25.65;100.00;98567.59;5072791;28;19988;-39
2022/09/07 05:40:14;;;;;;;;;;;;;;;24.97;100.00;98584.84;5072812;28;19974;-40
2022/09/07 05:42:40;;;;;;;;;;;;;;;24.95;100.00;98589.47;5073130;28;20099;-40
2022/09/07 05:45:05;;;;;;;;;;;;;;;25.28;100.00;98581.84;5070734;28;19920;-40
2022/09/07 05:47:31;;;;;;;;;;;;;;;25.45;100.00;98588.91;5071776;28;21021;-40
2022/09/07 05:49:56;;;;;;;;;;;;;;;25.52;100.00;98588.28;5074435;28;19959;-39
2022/09/07 05:52:21;;;;;;;;;;;;;;;25.69;100.00;98587.41;5054277;28;19920;-40
2022/09/07 05:54:47;;;;;;;;;;;;;;;26.16;100.00;98579.09;5072551;28;19915;-40
2022/09/07 05:57:12;;;;;;;;;;;;;;;25.80;100.00;98587.13;5072537;28;20022;-40
2022/09/07 05:59:37;;;;;;;;;;;;;;;26.43;100.00;98590.41;5073511;28;20293;-40
2022/09/07 06:02:03;;;;;;;;;;;;;;;26.62;100.00;98590.16;5069134;28;19942;-40
2022/09/07 06:04:28;;;;;;;;;;;;;;;26.48;100.00;98594.22;5072589;28;19955;-40
2022/09/07 06:06:53;;;;;;;;;;;;;;;26.66;100.00;98583.56;5072771;28;19920;-39
2022/09/07 06:09:18;;;;;;;;;;;;;;;26.79;100.00;98582.28;5073103;28;19927;-40
2022/09/07 06:11:44;;;;;;;;;;;;;;;26.82;100.00;98595.13;5073541;28;20061;-40
2022/09/07 06:14:09;;;;;;;;;;;;;;;26.87;100.00;98590.22;5074482;28;19959;-40
2022/09/07 06:16:34;;;;;;;;;;;;;;;26.97;100.00;98585.59;5072065;28;19948;-40
2022/09/07 06:19:02;;;;;;;;;;;;;;;27.08;100.00;98587.09;5072856;28;19927;-40
2022/09/07 06:21:28;;;;;;;;;;;;;;;27.25;100.00;98587.94;5072617;28;19920;-39
2022/09/07 06:23:53;;;;;;;;;;;;;;;26.58;100.00;98607.31;5074574;28;20372;-40
2022/09/07 06:26:18;;;;;;;;;;;;;;;25.70;100.00;98615.41;5072802;28;19977;-40
2022/09/07 06:28:44;;;;;;;;;;;;;;;26.31;100.00;98611.00;5073944;28;19916;-40
2022/09/07 06:31:13;;;;;;;;;;;;;;;26.33;100.00;98613.47;5072178;28;20030;-40
2022/09/07 06:33:39;;;;;;;;;;;;;;;26.60;100.00;98602.69;5073053;28;20396;-40
2022/09/07 06:36:05;;;;;;;;;;;;;;;26.10;100.00;98619.31;5055129;28;19919;-40
2022/09/07 06:38:31;;;;;;;;;;;;;;;25.81;100.00;98612.53;5073183;28;19924;-40
2022/09/07 06:41:03;;;;;;;;;;;;;;;26.38;100.00;98616.47;5072888;28;19920;-39
2022/09/07 06:43:29;;;;;;;;;;;;;;;26.82;100.00;98608.34;5073293;28;19943;-40
2022/09/07 06:45:54;;;;;;;;;;;;;;;27.18;100.00;98613.34;5072408;28;19947;-48
2022/09/07 06:48:20;;;;;;;;;;;;;;;27.41;100.00;98614.38;5073644;28;19919;-48
2022/09/07 06:50:53;;;;;;;;;;;;;;;27.72;100.00;98611.03;5071632;28;19920;-49
2022/09/07 06:53:19;;;;;;;;;;;;;;;27.85;100.00;98610.53;5072285;28;20626;-46
2022/09/07 06:55:44;;;;;;;;;;;;;;;28.04;100.00;98614.63;5072047;28;19927;-48
2022/09/07 06:58:09;;;;;;;;;;;;;;;28.17;100.00;98614.91;5072180;28;19928;-46
2022/09/07 07:00:34;;;;;;;;;;;;;;;27.94;100.00;98605.06;5070270;28;19967;-47
2022/09/07 07:03:00;;;;;;;;;;;;;;;28.47;100.00;98623.91;5071922;28;19931;-47
2022/09/07 07:05:25;;;;;;;;;;;;;;;27.90;100.00;98624.09;5072138;28;20023;-47
2022/09/07 07:07:50;;;;;;;;;;;;;;;26.91;100.00;98617.94;5071299;28;19967;-46
2022/09/07 07:10:15;;;;;;;;;;;;;;;27.80;100.00;98618.94;5072195;28;20411;-46
2022/09/07 07:12:41;;;;;;;;;;;;;;;28.73;100.00;98615.66;5073614;28;19916;-45
2022/09/07 07:15:07;;;;;;;;;;;;;;;28.21;100.00;98616.19;5071008;28;19920;-48
2022/09/07 07:17:32;;;;;;;;;;;;;;;28.61;100.00;98610.94;5072052;28;19920;-46
2022/09/07 07:19:58;;;;;;;;;;;;;;;28.70;100.00;98616.00;5071996;28;19927;-47
2022/09/07 07:22:23;;;;;;;;;;;;;;;28.67;100.00;98620.81;5071229;28;20339;-47
2022/09/07 07:24:48;;;;;;;;;;;;;;;28.13;100.00;98619.72;5072519;28;20018;-45
2022/09/07 07:27:13;;;;;;;;;;;;;;;28.20;100.00;98625.16;5072501;28;19966;-46
2022/09/07 07:29:39;;;;;;;;;;;;;;;29.08;100.00;98617.94;5069881;28;19952;-46
2022/09/07 07:32:04;;;;;;;;;;;;;;;28.87;100.00;98610.59;5073108;28;19923;-46
2022/09/07 07:34:29;;;;;;;;;;;;;;;28.52;100.00;98616.28;5071433;28;20047;-46
2022/09/07 07:36:55;;;;;;;;;;;;;;;29.10;100.00;98616.78;5070804;28;19981;-47
2022/09/07 07:39:20;;;;;;;;;;;;;;;28.84;93.84;98609.13;5072094;28;19928;-46
2022/09/07 07:41:45;;;;;;;;;;;;;;;27.12;100.00;98628.06;5071011;28;20019;-47
2022/09/07 07:44:12;;;;;;;;;;;;;;;28.52;100.00;98624.22;5071883;28;19916;-46
2022/09/07 07:46:37;;;;;;;;;;;;;;;29.37;97.10;98622.50;5070626;28;20262;-46
2022/09/07 07:49:02;;;;;;;;;;;;;;;30.03;90.00;98622.72;5070395;28;19927;-46
2022/09/07 07:51:27;;;;;;;;;;;;;;;29.25;89.93;98619.47;5071641;28;19916;-46
2022/09/07 07:53:53;;;;;;;;;;;;;;;30.76;91.93;98621.00;5072607;28;19958;-47
2022/09/07 07:56:18;;;;;;;;;;;;;;;30.62;85.38;98617.38;5070985;28;19916;-46
2022/09/07 07:58:45;;;;;;;;;;;;;;;29.82;89.24;98628.75;5070838;28;20038;-48
2022/09/07 08:01:11;;;;;;;;;;;;;;;30.36;90.32;98625.88;5071078;28;19924;-47
2022/09/07 08:03:37;;;;;;;;;;;;;;;30.07;85.70;98629.31;5053610;28;19958;-47
2022/09/07 08:06:03;;;;;;;;;;;;;;;30.66;89.62;98632.97;5071990;28;20005;-47
2022/09/07 08:08:29;;;;;;;;;;;;;;;31.04;87.56;98637.06;5071839;28;19960;-47
2022/09/07 08:10:54;;;;;;;;;;;;;;;31.18;87.30;98642.50;5071639;28;19962;-46
2022/09/07 08:13:20;;;;;;;;;;;;;;;31.18;83.92;98648.66;5070337;28;19963;-46
2022/09/07 08:15:45;;;;;;;;;;;;;;;31.57;82.81;98642.06;5071430;28;19947;-45
2022/09/07 08:18:11;;;;;;;;;;;;;;;31.40;78.94;98641.47;5069977;28;19924;-46
2022/09/07 08:20:36;;;;;;;;;;;;;;;30.60;79.80;98645.16;5069936;28;20402;-46
2022/09/07 08:23:02;;;;;;;;;;;;;;;31.01;83.58;98657.91;5067891;28;19920;-45
2022/09/07 08:25:27;;;;;;;;;;;;;;;30.38;87.84;98658.38;5069253;28;19973;-44
2022/09/07 08:27:52;;;;;;;;;;;;;;;31.37;84.17;98663.16;5066933;28;19919;-45
2022/09/07 08:30:17;;;;;;;;;;;;;;;31.38;80.47;98653.31;5070392;28;19935;-45
2022/09/07 08:32:43;;;;;;;;;;;;;;;30.43;86.61;98656.00;5065771;28;19962;-44
2022/09/07 08:35:08;;;;;;;;;;;;;;;30.90;82.70;98650.41;5073584;28;19966;-45
2022/09/07 08:37:33;;;;;;;;;;;;;;;31.14;84.71;98659.88;5069515;28;19971;-44
2022/09/07 08:39:58;;;;;;;;;;;;;;;31.35;81.97;98648.41;5065010;28;19955;-45
2022/09/07 08:42:23;;;;;;;;;;;;;;;30.59;81.13;98649.66;5070624;28;19951;-47
2022/09/07 08:45:13;;;;;;;;;;;;;;;31.79;81.91;98660.66;5074559;28;19924;-47
2022/09/07 08:47:40;;;;;;;;;;;;;;;31.40;82.11;98661.94;5073517;28;19916;-46
2022/09/07 08:50:17;;;;;;;;;;;;;;;31.46;81.40;98663.88;5054981;28;20854;-46
2022/09/07 08:52:47;;;;;;;;;;;;;;;32.22;79.93;98665.88;5057505;28;20392;-47
2022/09/07 08:55:20;;;;;;;;;;;;;;;32.09;77.88;98662.13;5074741;28;20367;-46
2022/09/07 08:57:51;;;;;;;;;;;;;;;31.61;81.27;98675.28;5050490;28;20670;-49
2022/09/07 09:00:16;;;;;;;;;;;;;;;30.96;82.61;98677.06;5055595;28;20612;-47
2022/09/07 09:02:42;;;;;;;;;;;;;;;30.83;87.28;98672.41;5054828;28;20034;-46
2022/09/07 09:05:15;;;;;;;;;;;;;;;30.13;83.22;98680.88;5056546;28;19920;-46
2022/09/07 09:07:43;;;;;;;;;;;;;;;29.83;90.47;98691.47;5053999;28;19931;-46
2022/09/07 09:10:11;;;;;;;;;;;;;;;30.38;90.39;98687.63;5055557;28;19939;-46
2022/09/07 09:12:45;;;;;;;;;;;;;;;30.96;91.07;98686.91;5073647;28;19974;-49
2022/09/07 09:15:19;;;;;;;;;;;;;;;30.97;88.71;98689.34;5056150;28;19953;-49
2022/09/07 09:17:54;;;;;;;;;;;;;;;29.08;93.99;98698.31;5053611;28;19924;-46
2022/09/07 09:20:20;;;;;;;;;;;;;;;28.76;100.00;98694.81;5072388;28;20057;-47
2022/09/07 09:22:45;;;;;;;;;;;;;;;28.82;98.46;98703.91;5071048;28;19924;-49
2022/09/07 09:25:20;;;;;;;;;;;;;;;29.36;91.54;98695.16;5070733;28;19967;-46
2022/09/07 09:27:46;;;;;;;;;;;;;;;29.98;96.21;98697.63;5072756;28;19961;-47
2022/09/07 09:30:13;;;;;;;;;;;;;;;28.65;96.65;98687.25;5073675;28;19927;-48
2022/09/07 09:32:40;;;;;;;;;;;;;;;29.11;97.72;98690.00;5072714;28;19919;-46
2022/09/07 09:35:24;;;;;;;;;;;;;;;28.44;100.00;98701.06;5056427;28;19920;-47
2022/09/07 09:37:49;;;;;;;;;;;;;;;27.63;100.00;98702.00;5061331;28;19950;-46
2022/09/07 09:40:19;;;;;;;;;;;;;;;28.98;100.00;98695.03;5051756;28;19920;-46
2022/09/07 09:42:45;;;;;;;;;;;;;;;29.22;98.47;98696.75;5023882;28;21130;-45
2022/09/07 09:45:20;;;;;;;;;;;;;;;28.49;100.00;98705.88;5073647;28;19927;-46
2022/09/07 09:47:49;;;;;;;;;;;;;;;28.23;100.00;98703.44;5072414;28;19927;-47
2022/09/07 09:50:16;;;;;;;;;;;;;;;29.26;98.06;98686.59;5054897;28;20027;-47
2022/09/07 09:52:41;;;;;;;;;;;;;;;27.48;100.00;98705.31;5052113;28;20038;-47
2022/09/07 09:55:06;;;;;;;;;;;;;;;28.31;100.00;98692.81;5052915;28;19940;-47
2022/09/07 09:57:45;;;;;;;;;;;;;;;28.68;100.00;98692.19;5052702;28;19928;-41
2022/09/07 10:00:13;;;;;;;;;;;;;;;29.28;100.00;98695.19;5055773;28;19973;-41
2022/09/07 10:02:38;;;;;;;;;;;;;;;29.58;99.82;98688.16;5054471;28;19927;-41
2022/09/07 10:05:29;;;;;;;;;;;;;;;28.11;100.00;98697.66;5073329;28;19916;-41
2022/09/07 10:07:55;;;;;;;;;;;;;;;27.68;100.00;98703.13;5038915;28;19931;-47
2022/09/07 10:10:20;;;;;;;;;;;;;;;28.54;100.00;98696.41;5072156;28;20412;-46
2022/09/07 10:12:46;;;;;;;;;;;;;;;27.73;100.00;98703.47;5055264;28;19955;-46
2022/09/07 10:15:23;;;;;;;;;;;;;;;28.04;100.00;98692.22;5053091;28;19955;-48
2022/09/07 10:17:49;;;;;;;;;;;;;;;27.41;100.00;98693.69;5051504;28;20038;-47
2022/09/07 10:20:14;;;;;;;;;;;;;;;28.10;100.00;98693.34;5070917;28;19920;-47
2022/09/07 10:22:40;;;;;;;;;;;;;;;29.04;100.00;98686.38;5070046;28;19974;-49
2022/09/07 10:25:24;;;;;;;;;;;;;;;28.51;100.00;98686.16;5052351;28;19920;-47
2022/09/07 10:27:59;;;;;;;;;;;;;;;29.34;97.70;98691.84;5070768;28;19920;-48
2022/09/07 10:30:24;;;;;;;;;;;;;;;29.89;94.98;98692.59;5073948;28;19923;-49
2022/09/07 10:33:05;;;;;;;;;;;;;;;30.48;92.69;98678.53;5053274;28;19924;-47
2022/09/07 10:35:32;;;;;;;;;;;;;;;29.93;90.03;98683.25;5069660;28;19959;-47
2022/09/07 10:38:16;;;;;;;;;;;;;;;31.15;86.98;98667.66;5054916;28;19934;-46
2022/09/07 10:40:41;;;;;;;;;;;;;;;31.05;86.99;98667.97;5072273;28;19915;-46
2022/09/07 10:43:13;;;;;;;;;;;;;;;33.02;78.14;98660.84;5073669;28;19939;-49
2022/09/07 10:45:47;;;;;;;;;;;;;;;32.04;83.75;98664.53;5070910;28;19919;-46
2022/09/07 10:48:16;;;;;;;;;;;;;;;34.15;73.64;98661.75;5054381;28;19927;-47
2022/09/07 10:50:43;;;;;;;;;;;;;;;31.05;82.47;98665.31;5054661;28;19916;-46
2022/09/07 10:53:15;;;;;;;;;;;;;;;32.13;83.11;98656.38;5054258;28;20430;-46
2022/09/07 10:55:41;;;;;;;;;;;;;;;31.44;86.30;98652.59;5070404;28;19920;-49
2022/09/07 10:58:12;;;;;;;;;;;;;;;31.01;86.98;98657.91;5053942;28;19924;-48
2022/09/07 11:00:50;;;;;;;;;;;;;;;34.00;74.10;98647.75;5070819;28;20427;-46
2022/09/07 11:03:18;;;;;;;;;;;;;;;32.54;80.53;98644.94;5050793;28;19946;-46
2022/09/07 11:05:49;;;;;;;;;;;;;;;33.09;77.45;98637.72;5072719;28;19917;-48
2022/09/07 11:08:15;;;;;;;;;;;;;;;32.70;76.48;98626.72;5070203;28;19920;-46
2022/09/07 11:10:50;;;;;;;;;;;;;;;32.48;79.09;98633.19;5072204;28;20663;-48
2022/09/07 11:13:16;;;;;;;;;;;;;;;32.03;84.42;98633.59;5052651;28;19927;-46
2022/09/07 11:15:43;;;;;;;;;;;;;;;31.80;81.90;98636.50;5041801;28;20081;-46
2022/09/07 11:18:34;;;;;;;;;;;;;;;33.18;75.97;98628.47;5054088;28;19924;-48
2022/09/07 11:21:02;;;;;;;;;;;;;;;33.92;67.34;98634.63;5068801;28;20277;-46
2022/09/07 11:23:29;;;;;;;;;;;;;;;32.94;69.38;98632.53;5055725;28;20330;-48
2022/09/07 11:26:03;;;;;;;;;;;;;;;31.36;78.09;98634.91;5070803;28;20460;-46
2022/09/07 11:28:31;;;;;;;;;;;;;;;33.68;71.73;98634.25;5054669;28;20672;-46
2022/09/07 11:31:00;;;;;;;;;;;;;;;33.89;68.69;98629.69;5054065;28;20552;-47
2022/09/07 11:33:28;;;;;;;;;;;;;;;33.23;69.15;98634.03;5052908;28;19923;-50
2022/09/07 11:36:19;;;;;;;;;;;;;;;33.69;67.75;98635.91;5069489;28;19920;-46
2022/09/07 11:38:48;;;;;;;;;;;;;;;32.71;74.84;98632.91;5066718;28;19924;-47
2022/09/07 11:41:18;;;;;;;;;;;;;;;33.40;71.91;98642.47;5052437;28;19919;-46
2022/09/07 11:44:12;;;;;;;;;;;;;;;31.87;83.15;98636.53;5054238;28;19924;-49
2022/09/07 11:46:46;;;;;;;;;;;;;;;32.30;78.74;98637.22;5037444;28;19920;-46
2022/09/07 11:49:21;;;;;;;;;;;;;;;30.98;84.26;98643.16;5040779;28;19927;-47
2022/09/07 11:51:51;;;;;;;;;;;;;;;31.49;80.01;98634.22;5067697;28;20277;-47
2022/09/07 11:54:35;;;;;;;;;;;;;;;32.39;77.61;98640.53;5072131;28;19916;-47
2022/09/07 11:57:09;;;;;;;;;;;;;;;32.12;79.33;98641.44;5071699;28;20056;-47
2022/09/07 11:59:37;;;;;;;;;;;;;;;32.47;76.75;98635.03;5070540;28;19990;-47
2022/09/07 12:02:08;;;;;;;;;;;;;;;32.84;75.65;98616.91;5061340;28;20976;-46
2022/09/07 12:04:49;;;;;;;;;;;;;;;34.95;65.29;98618.59;5072338;28;20385;-47
2022/09/07 12:07:14;;;;;;;;;;;;;;;34.42;64.23;98618.88;5055621;28;20564;-49
2022/09/07 12:09:42;;;;;;;;;;;;;;;33.51;70.44;98627.69;5073933;28;19922;-47
2022/09/07 12:12:33;;;;;;;;;;;;;;;31.99;77.10;98640.31;5076042;28;19916;-47
2022/09/07 12:15:01;;;;;;;;;;;;;;;30.43;83.96;98632.06;5068903;28;20468;-49
2022/09/07 12:17:42;;;;;;;;;;;;;;;30.77;85.84;98620.00;5075573;28;19924;-47
2022/09/07 12:20:10;;;;;;;;;;;;;;;30.51;85.61;98607.22;5040362;28;20443;-41
2022/09/07 12:22:36;;;;;;;;;;;;;;;32.19;77.37;98602.31;5057621;28;20014;-41
2022/09/07 12:25:08;;;;;;;;;;;;;;;31.65;77.97;98617.94;5076030;28;20975;-41
2022/09/07 12:27:33;;;;;;;;;;;;;;;31.25;82.44;98612.31;5073238;28;19998;-40
2022/09/07 12:30:00;;;;;;;;;;;;;;;30.32;86.77;98610.47;5074236;28;20334;-41
2022/09/07 12:32:44;;;;;;;;;;;;;;;30.83;85.31;98621.88;5066539;28;19927;-41
2022/09/07 12:35:28;;;;;;;;;;;;;;;29.96;90.07;98622.63;5075586;28;19926;-41
2022/09/07 12:37:54;;;;;;;;;;;;;;;31.34;85.80;98609.47;5074495;28;19966;-41
2022/09/07 12:40:34;;;;;;;;;;;;;;;30.35;86.42;98615.41;5073978;28;20006;-41
2022/09/07 12:43:12;;;;;;;;;;;;;;;30.80;87.80;98614.28;5073600;28;20428;-41
2022/09/07 12:45:37;;;;;;;;;;;;;;;30.44;88.86;98603.66;5072900;28;20907;-40